SEGU/GYE METAR and TAF weather

Enter ICAO airport designator
Station Type Date Time Source
SEGU METAR 2019/02/16 03:00 UTC NOAA

SEGU 160300Z 27003KT CAVOK 27/24 Q1011 NOSIG RMK A2986


Station Type Date Time Source
SEGU Decoded METAR 2019/02/16 03:00 UTC NOAA

Guayaquil / Simon Bolivar, Ecuador (SEGU) 02-09S 079-53W 9M
Feb 15, 2019 - 10:00 PM EST / 2019.02.16 0300 UTC
Wind: from the W (270 degrees) at 3 MPH (3 KT):0
Visibility: greater than 7 mile(s):0
Temperature: 80 F (27 C)
Dew Point: 75 F (24 C)
Relative Humidity: 83%
Pressure (altimeter): 29.85 in. Hg (1011 hPa)
ob: SEGU 160300Z 27003KT CAVOK 27/24 Q1011 NOSIG RMK A2986
cycle: 3

Station Type Date Time Source
SEGU TAF 2019/02/15 18:06 UTC NOAA

TAF TAF SEGU 151640Z 1518/1618 15005KT 9999 BKN020 BKN100
FM152200 19005KT 6000 RA FEW013 BKN016 BKN100
FM160300 23007KT 9999 FEW010 BKN020 BKN090
FM161100 06005KT 9999 BKN020 BKN100 TX32/1520Z TN24/1610Z


Example: see airport list